Time;durP1;ratioP1;P1;durP2;ratioP2;P2;SDS_P1;SDS_P2;PMS_P1;PMS_P2;Temp;Humidity;BMP_temperature;BMP_pressure;BME280_temperature;BME280_humidity;BME280_pressure;Samples;Min_cycle;Max_cycle;Signal;HPM_P1;HPM_P2
2022/07/20 00:00:41;;;;;;;;;;;;;;;19.80;61.70;100862.25;5105585;28;1984;-94
2022/07/20 00:03:07;;;;;;;;;;;;;;;19.79;61.55;100874.25;5097242;28;1302;-95
2022/07/20 00:05:34;;;;;;;;;;;;;;;19.78;61.81;100872.63;5097308;28;2579;-95
2022/07/20 00:08:00;;;;;;;;;;;;;;;19.79;61.75;100867.97;5107167;27;2562;-93
2022/07/20 00:13:11;;;;;;;;;;;;;;;19.77;61.91;100881.09;5097855;28;1497;-94
2022/07/20 00:15:38;;;;;;;;;;;;;;;19.74;61.71;100882.47;5101844;28;2524;-95
2022/07/20 00:18:05;;;;;;;;;;;;;;;19.76;61.63;100898.56;5114400;28;1877;-94
2022/07/20 00:20:31;;;;;;;;;;;;;;;19.74;61.84;100905.13;5097290;28;1945;-95
2022/07/20 00:22:58;;;;;;;;;;;;;;;19.73;61.52;100906.22;5097290;28;2284;-94
2022/07/20 00:25:24;;;;;;;;;;;;;;;19.73;61.45;100906.22;5113065;28;2312;-95
2022/07/20 00:27:51;;;;;;;;;;;;;;;19.73;61.76;100916.31;5102146;28;1957;-94
2022/07/20 00:30:17;;;;;;;;;;;;;;;19.71;61.86;100922.09;5116698;28;1695;-95
2022/07/20 00:32:44;;;;;;;;;;;;;;;19.71;61.52;100933.00;5109322;28;1416;-95
2022/07/20 00:35:10;;;;;;;;;;;;;;;19.72;61.84;100936.56;5104699;28;2330;-94
2022/07/20 00:37:37;;;;;;;;;;;;;;;19.70;61.87;100922.34;5108928;28;2322;-94
2022/07/20 00:40:03;;;;;;;;;;;;;;;19.68;61.84;100917.16;5102739;28;1980;-94
2022/07/20 00:42:30;;;;;;;;;;;;;;;19.68;61.52;100916.34;5097227;28;1883;-95
2022/07/20 00:44:56;;;;;;;;;;;;;;;19.68;61.58;100905.41;5111666;28;2523;-95
2022/07/20 00:47:23;;;;;;;;;;;;;;;19.67;61.50;100893.63;5112803;28;1811;-94
2022/07/20 00:49:49;;;;;;;;;;;;;;;19.66;61.40;100886.53;5102892;28;1531;-94
2022/07/20 00:52:16;;;;;;;;;;;;;;;19.66;61.38;100888.47;5103722;28;1593;-95
2022/07/20 00:54:42;;;;;;;;;;;;;;;19.65;61.72;100884.91;5103327;28;1606;-95
2022/07/20 00:57:09;;;;;;;;;;;;;;;19.65;61.75;100876.72;5100631;28;1906;-94
2022/07/20 00:59:35;;;;;;;;;;;;;;;19.65;61.43;100889.56;5111117;28;1728;-95
2022/07/20 01:02:02;;;;;;;;;;;;;;;19.64;61.66;100888.69;5104990;28;1979;-95
2022/07/20 01:04:28;;;;;;;;;;;;;;;19.63;61.75;100889.78;5110921;28;2094;-95
2022/07/20 01:06:55;;;;;;;;;;;;;;;19.63;61.49;100894.44;5117140;28;1545;-95
2022/07/20 01:09:22;;;;;;;;;;;;;;;19.62;61.36;100888.16;5110533;28;1431;-95
2022/07/20 01:11:48;;;;;;;;;;;;;;;19.62;61.53;100899.09;5101496;28;2083;-95
2022/07/20 01:14:15;;;;;;;;;;;;;;;19.62;61.31;100890.06;5120771;27;1857;-95
2022/07/20 01:16:42;;;;;;;;;;;;;;;19.61;61.40;100905.63;5099841;28;1706;-95
2022/07/20 01:19:09;;;;;;;;;;;;;;;19.60;61.52;100914.94;5097946;28;1617;-95
2022/07/20 01:21:40;;;;;;;;;;;;;;;19.60;61.43;100914.09;5101002;28;1913;-95
2022/07/20 01:24:07;;;;;;;;;;;;;;;19.59;61.69;100909.72;5104471;28;1497;-94
2022/07/20 01:26:33;;;;;;;;;;;;;;;19.59;61.57;100923.38;5116661;28;1949;-96
2022/07/20 01:29:00;;;;;;;;;;;;;;;19.57;61.40;100918.19;5107379;28;1910;-95
2022/07/20 01:31:27;;;;;;;;;;;;;;;19.57;61.31;100909.19;5102562;28;1671;-95
2022/07/20 01:33:53;;;;;;;;;;;;;;;19.56;61.59;100894.72;5107387;28;2289;-95
2022/07/20 01:36:19;;;;;;;;;;;;;;;19.55;61.22;100884.88;5102343;28;1498;-94
2022/07/20 01:38:46;;;;;;;;;;;;;;;19.55;61.22;100890.31;5101052;28;1621;-95
2022/07/20 01:41:12;;;;;;;;;;;;;;;19.55;61.25;100887.59;5101036;28;1973;-95
2022/07/20 01:43:39;;;;;;;;;;;;;;;19.54;61.12;100899.63;5103177;28;1696;-95
2022/07/20 01:46:05;;;;;;;;;;;;;;;19.54;61.58;100901.53;5103031;28;2121;-95
2022/07/20 01:48:32;;;;;;;;;;;;;;;19.54;61.20;100898.81;5112935;28;1807;-96
2022/07/20 01:50:59;;;;;;;;;;;;;;;19.52;61.41;100894.41;5100885;28;2106;-94
2022/07/20 01:53:25;;;;;;;;;;;;;;;19.52;61.28;100901.78;5096729;28;1468;-95
2022/07/20 01:55:52;;;;;;;;;;;;;;;19.51;61.10;100911.91;5096544;28;1440;-95
2022/07/20 01:58:18;;;;;;;;;;;;;;;19.51;61.38;100916.56;5103875;28;1756;-95
2022/07/20 02:00:44;;;;;;;;;;;;;;;19.50;61.02;100934.84;5113409;28;1989;-95
2022/07/20 02:03:11;;;;;;;;;;;;;;;19.50;61.43;100945.78;5116110;28;1456;-95
2022/07/20 02:05:38;;;;;;;;;;;;;;;19.49;61.10;100946.03;5113224;28;1902;-95
2022/07/20 02:08:04;;;;;;;;;;;;;;;19.48;61.15;100947.13;5109761;28;1564;-95
2022/07/20 02:10:31;;;;;;;;;;;;;;;19.48;61.08;100930.75;5100602;28;2011;-95
2022/07/20 02:12:58;;;;;;;;;;;;;;;19.46;61.22;100944.66;5104786;28;1796;-95
2022/07/20 02:18:09;;;;;;;;;;;;;;;19.46;61.08;100933.75;5106370;28;1614;-95
2022/07/20 02:20:35;;;;;;;;;;;;;;;19.46;61.34;100922.00;5096271;28;1971;-94
2022/07/20 02:23:02;;;;;;;;;;;;;;;19.44;61.01;100910.50;5105739;28;1719;-94
2022/07/20 02:25:28;;;;;;;;;;;;;;;19.44;61.05;100892.25;5114024;28;2056;-95
2022/07/20 02:27:55;;;;;;;;;;;;;;;19.44;60.85;100896.84;5102115;28;1743;-95
2022/07/20 02:30:21;;;;;;;;;;;;;;;19.43;61.11;100887.03;5095625;28;1601;-95
2022/07/20 02:32:48;;;;;;;;;;;;;;;19.42;61.20;100874.47;5105064;28;2158;-95
2022/07/20 02:35:14;;;;;;;;;;;;;;;19.41;61.22;100886.47;5128787;27;1544;-95
2022/07/20 02:37:41;;;;;;;;;;;;;;;19.41;61.13;100884.59;5099209;28;2365;-95
2022/07/20 02:40:07;;;;;;;;;;;;;;;19.41;60.84;100886.47;5116506;27;2013;-94
2022/07/20 02:42:34;;;;;;;;;;;;;;;19.41;61.00;100894.66;5109166;28;2378;-95
2022/07/20 02:45:01;;;;;;;;;;;;;;;19.40;60.98;100901.22;5112807;28;1419;-95
2022/07/20 02:47:27;;;;;;;;;;;;;;;19.40;61.14;100882.13;5095458;28;1327;-94
2022/07/20 02:49:54;;;;;;;;;;;;;;;19.39;61.06;100880.47;5095423;28;1187;-95
2022/07/20 02:52:20;;;;;;;;;;;;;;;19.38;61.07;100873.38;5107067;28;2045;-94
2022/07/20 02:54:47;;;;;;;;;;;;;;;19.38;60.84;100865.16;5123765;28;1153;-95
2022/07/20 02:57:13;;;;;;;;;;;;;;;19.37;61.06;100875.28;5119541;28;2007;-95
2022/07/20 02:59:40;;;;;;;;;;;;;;;19.37;60.78;100871.72;5110261;28;2226;-94
2022/07/20 03:02:06;;;;;;;;;;;;;;;19.36;60.81;100856.44;5095763;28;1910;-95
2022/07/20 03:04:34;;;;;;;;;;;;;;;19.35;61.14;100861.06;5087213;28;1380;-94
2022/07/20 03:07:00;;;;;;;;;;;;;;;19.34;60.90;100867.63;5075403;28;1188;-95
2022/07/20 03:09:27;;;;;;;;;;;;;;;19.35;60.83;100872.00;5078440;28;2602;-95
2022/07/20 03:11:53;;;;;;;;;;;;;;;19.34;60.92;100870.34;5086845;28;1870;-95
2022/07/20 03:14:20;;;;;;;;;;;;;;;19.33;60.76;100855.06;5104378;28;1219;-95
2022/07/20 03:16:50;;;;;;;;;;;;;;;19.33;60.91;100857.81;5075518;28;1252;-95
2022/07/20 03:19:17;;;;;;;;;;;;;;;19.33;60.74;100865.19;5088156;28;1494;-95
2022/07/20 03:21:43;;;;;;;;;;;;;;;19.32;60.69;100866.25;5106011;28;1985;-95
2022/07/20 03:24:10;;;;;;;;;;;;;;;19.32;60.86;100855.34;5114966;28;1296;-95
2022/07/20 03:26:36;;;;;;;;;;;;;;;19.31;60.94;100867.34;5107482;28;1909;-95
2022/07/20 03:29:03;;;;;;;;;;;;;;;19.31;60.79;100878.28;5088109;28;1237;-95
2022/07/20 03:31:29;;;;;;;;;;;;;;;19.31;60.87;100867.34;5076826;28;2189;-95
2022/07/20 03:33:56;;;;;;;;;;;;;;;19.29;60.64;100865.72;5097452;28;1833;-95
2022/07/20 03:36:22;;;;;;;;;;;;;;;19.28;60.91;100858.59;5084938;28;2067;-95
2022/07/20 03:38:49;;;;;;;;;;;;;;;19.27;60.59;100873.34;5076689;28;2043;-94
2022/07/20 03:41:15;;;;;;;;;;;;;;;19.28;60.91;100871.44;5073448;28;1910;-96
2022/07/20 03:43:44;;;;;;;;;;;;;;;19.26;60.83;100882.63;5096090;28;1417;-95
2022/07/20 03:46:10;;;;;;;;;;;;;;;19.26;60.85;100877.16;5102998;28;1323;-95
2022/07/20 03:48:37;;;;;;;;;;;;;;;19.26;60.61;100879.06;5077732;28;1916;-93
2022/07/20 03:51:03;;;;;;;;;;;;;;;19.25;60.44;100872.81;5079380;28;1850;-95
2022/07/20 03:53:30;;;;;;;;;;;;;;;19.25;60.75;100870.06;5086776;28;1180;-95
2022/07/20 03:55:56;;;;;;;;;;;;;;;19.24;60.49;100862.16;5089674;28;1658;-94
2022/07/20 03:58:23;;;;;;;;;;;;;;;19.23;60.47;100852.31;5111044;28;2443;-95
2022/07/20 04:00:49;;;;;;;;;;;;;;;19.23;60.51;100861.31;5105652;28;1882;-95
2022/07/20 04:03:16;;;;;;;;;;;;;;;19.23;60.78;100865.97;5108254;28;1973;-95
2022/07/20 04:05:42;;;;;;;;;;;;;;;19.22;60.73;100876.06;5114072;28;1337;-95
2022/07/20 04:08:09;;;;;;;;;;;;;;;19.22;60.74;100870.59;5109247;28;1219;-95
2022/07/20 04:10:35;;;;;;;;;;;;;;;19.21;60.65;100868.16;5093980;28;1975;-95
2022/07/20 04:13:02;;;;;;;;;;;;;;;19.21;60.75;100879.09;5111495;28;1210;-95
2022/07/20 04:15:29;;;;;;;;;;;;;;;19.21;60.49;100857.25;5110432;28;1777;-95
2022/07/20 04:17:56;;;;;;;;;;;;;;;19.20;60.61;100866.50;5094193;28;2283;-94
2022/07/20 04:20:23;;;;;;;;;;;;;;;19.19;60.70;100860.22;5105663;28;1309;-95
2022/07/20 04:22:49;;;;;;;;;;;;;;;19.18;60.71;100847.69;5096838;28;1981;-95
2022/07/20 04:25:16;;;;;;;;;;;;;;;19.19;60.78;100845.75;5098153;28;1379;-94
2022/07/20 04:27:42;;;;;;;;;;;;;;;19.18;60.65;100849.59;5094237;28;1285;-95
2022/07/20 04:30:09;;;;;;;;;;;;;;;19.16;60.72;100852.56;5093981;28;1217;-95
2022/07/20 04:32:36;;;;;;;;;;;;;;;19.17;60.62;100853.41;5093991;28;1494;-94
2022/07/20 04:35:02;;;;;;;;;;;;;;;19.17;60.43;100856.13;5097281;28;1372;-94
2022/07/20 04:37:29;;;;;;;;;;;;;;;19.16;60.63;100838.94;5117863;28;2202;-94
2022/07/20 04:39:55;;;;;;;;;;;;;;;19.14;60.73;100838.38;5118801;28;1162;-95
2022/07/20 04:42:22;;;;;;;;;;;;;;;19.14;60.37;100845.75;5117297;28;1913;-95
2022/07/20 04:44:48;;;;;;;;;;;;;;;19.14;60.55;100841.09;5118396;28;1202;-95
2022/07/20 04:47:15;;;;;;;;;;;;;;;19.14;60.35;100841.09;5114842;28;1360;-95
2022/07/20 04:49:41;;;;;;;;;;;;;;;19.14;60.64;100851.19;5097840;28;1175;-94
2022/07/20 04:52:08;;;;;;;;;;;;;;;19.14;60.62;100853.94;5108202;28;1874;-95
2022/07/20 04:54:34;;;;;;;;;;;;;;;19.13;60.53;100866.78;5111569;28;1305;-95
2022/07/20 04:57:01;;;;;;;;;;;;;;;19.13;60.57;100857.75;5117858;28;1718;-95
2022/07/20 04:59:27;;;;;;;;;;;;;;;19.13;60.31;100857.75;5101557;28;1301;-95
2022/07/20 05:01:54;;;;;;;;;;;;;;;19.12;60.55;100864.28;5076686;28;1905;-95
2022/07/20 05:04:21;;;;;;;;;;;;;;;19.12;60.57;100884.25;5100738;28;1176;-95
2022/07/20 05:06:47;;;;;;;;;;;;;;;19.12;60.51;100888.84;5089447;28;1331;-95
2022/07/20 05:09:14;;;;;;;;;;;;;;;19.11;60.31;100887.22;5084874;28;4921;-95
2022/07/20 05:11:40;;;;;;;;;;;;;;;19.12;60.28;100875.22;5091632;28;1991;-95
2022/07/20 05:14:08;;;;;;;;;;;;;;;19.10;60.34;100861.03;5089755;28;2291;-95
2022/07/20 05:16:35;;;;;;;;;;;;;;;19.10;60.57;100861.03;5085955;28;1194;-95
2022/07/20 05:19:01;;;;;;;;;;;;;;;19.10;60.66;100852.84;5109333;28;1389;-95
2022/07/20 05:21:28;;;;;;;;;;;;;;;19.10;60.54;100850.13;5117902;28;1901;-94
2022/07/20 05:23:54;;;;;;;;;;;;;;;19.09;60.32;100838.38;5102827;28;2532;-95
2022/07/20 05:26:21;;;;;;;;;;;;;;;19.08;60.58;100841.38;5092385;28;1494;-94
2022/07/20 05:28:47;;;;;;;;;;;;;;;19.09;60.28;100832.06;5077048;28;1797;-96
2022/07/20 05:31:14;;;;;;;;;;;;;;;19.08;60.31;100850.38;5077303;28;1296;-95
2022/07/20 05:33:41;;;;;;;;;;;;;;;19.08;60.56;100844.91;5087003;28;1217;-95
2022/07/20 05:36:07;;;;;;;;;;;;;;;19.07;60.43;100843.28;5076817;28;1194;-95
2022/07/20 05:38:34;;;;;;;;;;;;;;;19.07;60.56;100846.00;5077759;28;2601;-95
2022/07/20 05:41:00;;;;;;;;;;;;;;;19.07;60.51;100843.28;5082553;28;1989;-95
2022/07/20 05:43:27;;;;;;;;;;;;;;;19.07;60.43;100840.56;5100124;28;1914;-95
2022/07/20 05:45:53;;;;;;;;;;;;;;;19.07;60.42;100840.56;5075781;28;2261;-95
2022/07/20 05:48:20;;;;;;;;;;;;;;;19.07;60.40;100840.56;5096245;28;1192;-95
2022/07/20 05:50:47;;;;;;;;;;;;;;;19.06;60.31;100826.09;5094732;28;2084;-94
2022/07/20 05:53:13;;;;;;;;;;;;;;;19.06;60.40;100837.00;5096645;28;1222;-94
2022/07/20 05:55:40;;;;;;;;;;;;;;;19.06;60.10;100845.19;5078975;28;1185;-95
2022/07/20 05:58:07;;;;;;;;;;;;;;;19.07;60.43;100840.56;5092037;28;1297;-95
2022/07/20 06:00:33;;;;;;;;;;;;;;;19.06;60.58;100828.00;5103252;28;2010;-95
2022/07/20 06:03:00;;;;;;;;;;;;;;;19.05;60.46;100821.69;5096578;28;1914;-94
2022/07/20 06:05:26;;;;;;;;;;;;;;;19.05;60.52;100818.16;5108375;28;1321;-95
2022/07/20 06:07:53;;;;;;;;;;;;;;;19.05;60.25;100821.69;5105325;28;1333;-95
2022/07/20 06:10:19;;;;;;;;;;;;;;;19.05;60.21;100820.88;5096783;28;1277;-95
2022/07/20 06:12:46;;;;;;;;;;;;;;;19.05;60.33;100812.69;5097450;28;1899;-94
2022/07/20 06:15:12;;;;;;;;;;;;;;;19.04;60.50;100825.53;5125185;27;1222;-95
2022/07/20 06:17:39;;;;;;;;;;;;;;;19.04;60.06;100822.78;5116941;28;1197;-94
2022/07/20 06:20:07;;;;;;;;;;;;;;;18.89;60.37;100811.03;5113381;28;1664;-94
2022/07/20 06:22:34;;;;;;;;;;;;;;;19.04;60.33;100831.00;5104231;28;2400;-94
2022/07/20 06:25:00;;;;;;;;;;;;;;;19.05;60.32;100826.34;5122195;27;1385;-95
2022/07/20 06:27:27;;;;;;;;;;;;;;;19.04;60.27;100831.00;5107951;28;1201;-95
2022/07/20 06:29:53;;;;;;;;;;;;;;;19.04;59.97;100831.00;5116507;28;1415;-95
2022/07/20 06:32:20;;;;;;;;;;;;;;;19.05;60.05;100842.72;5102630;28;2360;-95
2022/07/20 06:34:46;;;;;;;;;;;;;;;19.04;60.14;100847.38;5114176;28;1541;-96
2022/07/20 06:37:13;;;;;;;;;;;;;;;19.04;60.02;100850.09;5113475;28;1836;-95
2022/07/20 06:39:39;;;;;;;;;;;;;;;19.04;60.23;100849.28;5101718;28;2076;-94
2022/07/20 06:42:06;;;;;;;;;;;;;;;19.03;60.38;100848.47;5097343;28;1906;-94
2022/07/20 06:44:33;;;;;;;;;;;;;;;19.05;60.29;100859.09;5111431;28;1793;-95
2022/07/20 06:46:59;;;;;;;;;;;;;;;19.04;60.06;100863.75;5100621;28;1782;-95
2022/07/20 06:49:26;;;;;;;;;;;;;;;19.03;60.20;100864.84;5104297;28;1864;-95
2022/07/20 06:51:52;;;;;;;;;;;;;;;19.03;60.31;100862.13;5094863;28;1740;-95
2022/07/20 06:54:19;;;;;;;;;;;;;;;19.03;60.06;100864.00;5110633;28;2316;-95
2022/07/20 06:56:46;;;;;;;;;;;;;;;19.03;60.00;100872.19;5107319;28;1324;-94
2022/07/20 06:59:12;;;;;;;;;;;;;;;19.03;60.29;100875.75;5100607;28;1261;-96
2022/07/20 07:01:39;;;;;;;;;;;;;;;19.03;60.27;100873.03;5090971;28;1876;-95
2022/07/20 07:04:08;;;;;;;;;;;;;;;19.04;60.04;100874.66;5074225;28;2350;-95
2022/07/20 07:06:34;;;;;;;;;;;;;;;19.04;60.18;100871.13;5092732;28;1736;-95
2022/07/20 07:09:01;;;;;;;;;;;;;;;19.04;60.17;100869.19;5090693;28;1722;-95
2022/07/20 07:11:27;;;;;;;;;;;;;;;19.04;60.24;100873.84;5088795;28;1668;-95
2022/07/20 07:13:54;;;;;;;;;;;;;;;19.04;60.11;100879.31;5093166;28;1602;-96
2022/07/20 07:16:21;;;;;;;;;;;;;;;19.04;60.11;100882.84;5082667;28;1797;-96
2022/07/20 07:18:47;;;;;;;;;;;;;;;19.05;59.95;100884.47;5093653;28;1598;-95
2022/07/20 07:21:14;;;;;;;;;;;;;;;19.04;59.83;100888.31;5084405;28;1821;-94
2022/07/20 07:23:40;;;;;;;;;;;;;;;19.05;60.11;100883.66;5085805;28;1975;-94
2022/07/20 07:26:07;;;;;;;;;;;;;;;19.05;59.73;100883.66;5105707;28;1698;-94
2022/07/20 07:28:33;;;;;;;;;;;;;;;19.04;60.05;100882.03;5074942;28;1234;-94
2022/07/20 07:31:00;;;;;;;;;;;;;;;19.05;59.82;100884.47;5082565;28;2360;-95
2022/07/20 07:33:26;;;;;;;;;;;;;;;19.04;60.11;100882.84;5088311;28;1686;-94
2022/07/20 07:35:53;;;;;;;;;;;;;;;19.04;60.01;100880.13;5075166;28;1595;-94
2022/07/20 07:38:19;;;;;;;;;;;;;;;19.05;59.79;100880.94;5075507;28;4941;-95
2022/07/20 07:40:46;;;;;;;;;;;;;;;19.06;59.88;100877.13;5080792;28;1906;-94
2022/07/20 07:43:13;;;;;;;;;;;;;;;19.05;59.98;100884.47;5074298;28;1976;-94
2022/07/20 07:45:39;;;;;;;;;;;;;;;19.05;59.87;100873.56;5073888;28;1969;-95
2022/07/20 07:48:09;;;;;;;;;;;;;;;19.06;60.01;100885.31;5074359;28;1187;-95
2022/07/20 07:50:36;;;;;;;;;;;;;;;19.06;59.81;100888.06;5083532;28;2102;-95
2022/07/20 07:53:02;;;;;;;;;;;;;;;19.05;60.01;100879.00;5082287;28;1642;-95
2022/07/20 07:55:29;;;;;;;;;;;;;;;19.06;60.07;100880.69;5074592;28;1199;-96
2022/07/20 07:57:55;;;;;;;;;;;;;;;19.06;59.88;100883.41;5100763;28;1299;-95
2022/07/20 08:00:22;;;;;;;;;;;;;;;19.07;59.95;100876.03;5107339;28;2160;-95
2022/07/20 08:02:48;;;;;;;;;;;;;;;19.08;60.08;100879.59;5106845;28;1906;-95
2022/07/20 08:05:15;;;;;;;;;;;;;;;19.09;59.97;100882.06;5114779;28;1304;-95
2022/07/20 08:07:41;;;;;;;;;;;;;;;19.08;59.67;100876.84;5105929;28;1213;-95
2022/07/20 08:10:08;;;;;;;;;;;;;;;19.08;59.74;100880.41;5097326;28;3259;-95
2022/07/20 08:12:35;;;;;;;;;;;;;;;19.10;59.70;100877.41;5109166;28;1646;-95
2022/07/20 08:15:02;;;;;;;;;;;;;;;19.09;59.64;100870.28;5114385;28;1588;-96
2022/07/20 08:17:28;;;;;;;;;;;;;;;19.09;59.78;100870.28;5094154;28;2129;-94
2022/07/20 08:19:55;;;;;;;;;;;;;;;19.11;59.57;100873.59;5111606;28;2268;-95
2022/07/20 08:22:21;;;;;;;;;;;;;;;19.11;59.83;100870.84;5114582;28;1905;-96
2022/07/20 08:24:48;;;;;;;;;;;;;;;19.11;60.00;100870.84;5095213;28;1754;-95
2022/07/20 08:27:14;;;;;;;;;;;;;;;19.11;59.99;100870.84;5107168;28;1230;-95
2022/07/20 08:29:41;;;;;;;;;;;;;;;19.12;59.81;100875.22;5114371;28;1203;-95
2022/07/20 08:32:07;;;;;;;;;;;;;;;19.12;59.85;100875.22;5110539;28;2557;-95
2022/07/20 08:34:34;;;;;;;;;;;;;;;19.12;59.74;100873.31;5113685;28;1823;-96
2022/07/20 08:37:02;;;;;;;;;;;;;;;19.14;59.96;100873.03;5107136;28;1246;-96
2022/07/20 08:39:28;;;;;;;;;;;;;;;19.14;59.81;100867.59;5108356;28;1598;-96
2022/07/20 08:41:55;;;;;;;;;;;;;;;19.14;60.10;100873.03;5094462;28;1190;-96
2022/07/20 08:44:21;;;;;;;;;;;;;;;19.14;59.94;100862.94;5094163;28;2043;-96
2022/07/20 08:46:48;;;;;;;;;;;;;;;19.14;60.07;100868.41;5100145;28;1414;-95
2022/07/20 08:49:14;;;;;;;;;;;;;;;19.15;59.74;100858.28;5108868;28;2289;-95
2022/07/20 08:51:41;;;;;;;;;;;;;;;19.15;59.97;100856.41;5106953;28;2284;-95
2022/07/20 08:54:07;;;;;;;;;;;;;;;19.16;60.14;100840.84;5105914;28;1329;-96
2022/07/20 08:56:34;;;;;;;;;;;;;;;19.17;60.25;100847.94;5113353;28;1387;-95
2022/07/20 08:59:04;;;;;;;;;;;;;;;19.17;59.84;100846.03;5109862;28;1567;-95
2022/07/20 09:01:30;;;;;;;;;;;;;;;19.18;60.14;100841.41;5096835;28;1821;-96
2022/07/20 09:03:57;;;;;;;;;;;;;;;19.19;60.20;100853.94;5097061;28;1914;-95
2022/07/20 09:06:26;;;;;;;;;;;;;;;19.19;60.13;100841.13;5111097;28;1489;-95
2022/07/20 09:08:53;;;;;;;;;;;;;;;19.20;60.02;100844.66;5113116;28;1732;-96
2022/07/20 09:11:20;;;;;;;;;;;;;;;19.21;60.13;100849.88;5111465;28;1438;-96
2022/07/20 09:13:46;;;;;;;;;;;;;;;19.22;60.15;100851.50;5103970;28;1200;-95
2022/07/20 09:16:13;;;;;;;;;;;;;;;19.23;59.81;100860.50;5096657;28;1863;-96
2022/07/20 09:18:40;;;;;;;;;;;;;;;19.24;60.14;100853.97;5101884;28;1831;-96
2022/07/20 09:21:07;;;;;;;;;;;;;;;19.24;60.21;100859.44;5099952;28;1537;-96
2022/07/20 09:23:33;;;;;;;;;;;;;;;19.25;59.94;100853.69;5104485;28;1971;-96
2022/07/20 09:26:00;;;;;;;;;;;;;;;19.27;60.04;100856.16;5107961;28;2177;-96
2022/07/20 09:28:26;;;;;;;;;;;;;;;19.27;60.16;100845.25;5115548;27;1704;-96
2022/07/20 09:30:53;;;;;;;;;;;;;;;19.27;59.92;100846.06;5113193;28;1580;-96
2022/07/20 09:33:20;;;;;;;;;;;;;;;19.29;60.29;100856.69;5120357;27;1611;-96
2022/07/20 09:35:49;;;;;;;;;;;;;;;19.29;59.82;100857.53;5123806;23;2646;-96
2022/07/20 09:38:16;;;;;;;;;;;;;;;19.32;59.90;100861.59;5100637;28;1884;-96
2022/07/20 09:40:44;;;;;;;;;;;;;;;19.32;60.35;100861.59;5105770;28;1821;-96
2022/07/20 09:43:10;;;;;;;;;;;;;;;19.33;59.93;100863.28;5097401;28;1977;-96
2022/07/20 09:45:37;;;;;;;;;;;;;;;19.33;60.19;100852.34;5098737;28;1489;-96
2022/07/20 09:48:04;;;;;;;;;;;;;;;19.35;60.40;100852.06;5100321;28;1178;-96
2022/07/20 09:50:31;;;;;;;;;;;;;;;19.35;60.47;100841.13;5099132;28;1282;-96
2022/07/20 09:53:02;;;;;;;;;;;;;;;19.36;60.46;100851.81;5099349;28;1492;-96
2022/07/20 09:55:29;;;;;;;;;;;;;;;19.37;60.21;100850.69;5097038;28;1186;-96
2022/07/20 09:57:55;;;;;;;;;;;;;;;19.38;60.58;100846.88;5088386;28;1793;-96
2022/07/20 10:00:22;;;;;;;;;;;;;;;19.40;60.56;100832.97;5095699;28;1394;-96
2022/07/20 10:02:49;;;;;;;;;;;;;;;19.39;60.62;100831.31;5097663;28;1913;-96
2022/07/20 10:05:15;;;;;;;;;;;;;;;19.41;60.61;100823.66;5096663;28;1477;-96
2022/07/20 10:07:42;;;;;;;;;;;;;;;19.41;60.75;100832.69;5097959;28;1287;-96
2022/07/20 10:10:08;;;;;;;;;;;;;;;19.42;60.81;100823.41;5085819;28;5267;-96
2022/07/20 10:12:35;;;;;;;;;;;;;;;19.43;60.40;100824.22;5089641;28;1960;-96
2022/07/20 10:15:02;;;;;;;;;;;;;;;19.44;60.83;100820.38;5082185;28;2696;-96
2022/07/20 10:17:36;;;;;;;;;;;;;;;19.44;60.93;100813.03;5090873;28;1794;-96
2022/07/20 10:22:44;;;;;;;;;;;;;;;19.46;60.76;100807.28;5091547;28;1910;-96
2022/07/20 10:25:11;;;;;;;;;;;;;;;19.48;60.69;100810.56;5090026;28;2717;-96
2022/07/20 10:27:38;;;;;;;;;;;;;;;19.49;60.97;100818.47;5107177;22;2081;-96
2022/07/20 10:30:05;;;;;;;;;;;;;;;19.49;60.69;100810.28;5044515;28;1321;-96
2022/07/20 10:32:32;;;;;;;;;;;;;;;19.52;60.90;100811.66;5050180;28;1476;-96
2022/07/20 10:34:59;;;;;;;;;;;;;;;19.51;60.66;100808.09;5044015;28;1508;-96
2022/07/20 10:37:39;;;;;;;;;;;;;;;19.53;60.74;100802.38;5068228;28;1370;-96
2022/07/20 10:40:12;;;;;;;;;;;;;;;19.55;60.86;100805.63;5072712;28;1255;-96
2022/07/20 10:42:43;;;;;;;;;;;;;;;19.56;61.10;100810.03;5054908;28;1632;-96
2022/07/20 10:45:36;;;;;;;;;;;;;;;19.58;60.86;100804.28;5169434;22;2189;-96
2022/07/20 10:48:04;;;;;;;;;;;;;;;19.58;61.11;100812.47;5073365;28;1257;-96
2022/07/20 10:50:31;;;;;;;;;;;;;;;19.58;61.06;100805.09;5088360;28;1197;-96
2022/07/20 10:56:06;;;;;;;;;;;;;;;19.61;61.13;100807.28;5090890;28;1309;-96
2022/07/20 10:58:33;;;;;;;;;;;;;;;19.61;60.92;100799.09;5070248;28;1268;-96
2022/07/20 11:01:00;;;;;;;;;;;;;;;19.63;61.13;100801.56;5065925;28;1327;-96
2022/07/20 11:03:29;;;;;;;;;;;;;;;19.63;61.14;100793.34;5067001;28;1961;-96
2022/07/20 11:26:00;;;;;;;;;;;;;;;19.75;61.35;100780.25;5130811;23;1800;-96
2022/07/20 11:28:51;;;;;;;;;;;;;;;19.76;61.32;100786.53;5079830;28;628;-96
2022/07/20 11:31:44;;;;;;;;;;;;;;;19.77;61.46;100782.72;5077687;28;878;-96
2022/07/20 11:34:37;;;;;;;;;;;;;;;19.77;61.55;100783.53;5091000;28;1425;-96
2022/07/20 11:37:03;;;;;;;;;;;;;;;19.78;61.41;100787.91;5064737;28;1689;-96
2022/07/20 11:39:31;;;;;;;;;;;;;;;19.78;61.23;100792.56;5063092;28;1267;-96
2022/07/20 11:41:58;;;;;;;;;;;;;;;19.79;61.45;100800.47;5060891;28;1191;-96
2022/07/20 11:44:27;;;;;;;;;;;;;;;19.79;61.83;100797.72;5061939;28;1906;-96
2022/07/20 11:46:54;;;;;;;;;;;;;;;19.81;61.86;100792.81;5059957;28;1875;-96
2022/07/20 11:49:21;;;;;;;;;;;;;;;19.83;61.41;100787.91;5055245;28;1609;-96
2022/07/20 11:51:48;;;;;;;;;;;;;;;19.84;61.83;100788.72;5074484;28;1248;-96
2022/07/20 11:54:14;;;;;;;;;;;;;;;19.86;61.64;100786.53;5079596;28;1923;-96
2022/07/20 11:56:41;;;;;;;;;;;;;;;19.86;61.80;100781.06;5097701;28;1201;-96
2022/07/20 11:59:08;;;;;;;;;;;;;;;19.88;61.30;100796.09;5098306;28;1295;-96
2022/07/20 12:01:36;;;;;;;;;;;;;;;19.90;61.44;100791.16;5098618;28;1439;-96
2022/07/20 12:04:03;;;;;;;;;;;;;;;19.91;61.57;100801.03;5096699;28;1913;-96
2022/07/20 12:06:29;;;;;;;;;;;;;;;19.93;61.49;100795.25;5079953;28;1651;-96
2022/07/20 12:08:56;;;;;;;;;;;;;;;19.93;61.32;100781.59;5078913;28;1224;-96
2022/07/20 12:11:23;;;;;;;;;;;;;;;19.93;61.32;100778.84;5079239;28;2793;-95
2022/07/20 12:13:50;;;;;;;;;;;;;;;19.95;61.62;100784.88;5097467;28;1755;-96
2022/07/20 12:16:16;;;;;;;;;;;;;;;19.95;61.34;100772.03;5080659;28;1352;-96
2022/07/20 12:18:44;;;;;;;;;;;;;;;19.97;61.39;100769.00;5081504;28;1390;-96
2022/07/20 12:21:24;;;;;;;;;;;;;;;19.99;61.71;100771.47;5081660;28;1197;-96
2022/07/20 12:23:52;;;;;;;;;;;;;;;20.01;61.84;100777.50;5084621;28;1949;-96
2022/07/20 12:26:19;;;;;;;;;;;;;;;20.01;61.46;100770.09;5066667;28;1418;-96
2022/07/20 12:28:46;;;;;;;;;;;;;;;20.03;61.77;100769.81;5095934;28;1755;-96
2022/07/20 12:31:13;;;;;;;;;;;;;;;20.06;61.57;100778.28;5082175;28;1304;-96
2022/07/20 12:33:39;;;;;;;;;;;;;;;20.05;61.52;100776.63;5087635;28;1218;-96
2022/07/20 12:36:06;;;;;;;;;;;;;;;20.06;61.84;100786.50;5092778;28;1851;-96
2022/07/20 12:38:36;;;;;;;;;;;;;;;20.08;61.86;100783.47;5106365;28;1264;-96
2022/07/20 12:41:03;;;;;;;;;;;;;;;20.10;61.46;100782.09;5106582;28;1500;-96
2022/07/20 12:43:35;;;;;;;;;;;;;;;20.11;61.59;100786.47;5112768;28;1940;-96
2022/07/20 12:46:05;;;;;;;;;;;;;;;20.13;61.71;100778.81;5090222;28;1505;-96
2022/07/20 12:48:33;;;;;;;;;;;;;;;20.15;61.38;100779.34;5063570;28;1188;-96
2022/07/20 12:51:00;;;;;;;;;;;;;;;20.17;61.63;100781.81;5067620;28;1362;-96
2022/07/20 12:53:28;;;;;;;;;;;;;;;20.19;61.65;100771.41;5075002;28;2227;-96
2022/07/20 12:59:15;;;;;;;;;;;;;;;20.23;61.68;100758.81;5301649;22;2159;-96
2022/07/20 13:01:48;;;;;;;;;;;;;;;20.25;61.79;100764.81;5115380;28;1121;-96
2022/07/20 13:04:14;;;;;;;;;;;;;;;20.28;61.82;100760.72;5267365;22;2177;-96
2022/07/20 13:06:52;;;;;;;;;;;;;;;20.30;61.86;100774.94;5125183;28;1715;-96
2022/07/20 13:09:18;;;;;;;;;;;;;;;20.30;61.81;100764.81;5103449;28;1205;-96
2022/07/20 13:11:45;;;;;;;;;;;;;;;20.31;62.14;100769.19;5106357;28;1528;-96
2022/07/20 13:14:17;;;;;;;;;;;;;;;20.31;61.81;100760.97;5108589;28;1457;-96
2022/07/20 13:16:44;;;;;;;;;;;;;;;20.34;62.12;100765.88;5108349;28;1237;-96
2022/07/20 13:19:11;;;;;;;;;;;;;;;20.36;62.17;100758.22;5108033;28;1373;-96
2022/07/20 13:21:37;;;;;;;;;;;;;;;20.37;61.95;100770.78;5107289;28;1423;-96